Time;durP1;ratioP1;P1;durP2;ratioP2;P2;SDS_P1;SDS_P2;PMS_P1;PMS_P2;Temp;Humidity;BMP_temperature;BMP_pressure;BME280_temperature;BME280_humidity;BME280_pressure;Samples;Min_cycle;Max_cycle;Signal;HPM_P1;HPM_P2
2022/05/21 00:02:01;;;;;;;25.97;24.53;;;19.40;84.40;;;;;;5074912;28;21011;-72
2022/05/21 00:04:29;;;;;;;26.43;24.83;;;19.40;84.10;;;;;;5079344;28;20481;-72
2022/05/21 00:06:56;;;;;;;26.50;24.80;;;19.40;84.20;;;;;;5079246;28;20466;-72
2022/05/21 00:09:23;;;;;;;26.37;24.77;;;19.30;84.60;;;;;;5081729;28;20457;-72
2022/05/21 00:11:50;;;;;;;26.97;25.27;;;19.30;84.40;;;;;;5083238;28;20470;-73
2022/05/21 00:14:17;;;;;;;26.33;24.73;;;19.30;84.50;;;;;;5078674;28;20485;-72
2022/05/21 00:16:46;;;;;;;26.17;24.63;;;19.30;84.60;;;;;;5094082;28;20976;-73
2022/05/21 00:19:12;;;;;;;25.50;24.10;;;19.30;85.10;;;;;;5076309;28;20460;-73
2022/05/21 00:21:40;;;;;;;26.20;24.60;;;19.20;85.40;;;;;;5076842;28;20473;-73
2022/05/21 00:24:07;;;;;;;26.07;24.30;;;19.10;85.20;;;;;;5084058;28;20457;-71
2022/05/21 00:26:34;;;;;;;26.57;25.07;;;19.10;85.20;;;;;;5078167;28;20785;-72
2022/05/21 00:29:01;;;;;;;25.20;23.77;;;19.00;85.50;;;;;;5079719;28;20461;-72
2022/05/21 00:31:28;;;;;;;26.53;24.57;;;19.00;85.70;;;;;;5074254;28;20450;-71
2022/05/21 00:33:56;;;;;;;26.63;25.07;;;18.90;86.10;;;;;;5076381;28;20457;-71
2022/05/21 00:36:23;;;;;;;25.23;23.73;;;18.80;86.40;;;;;;5073365;28;20450;-72
2022/05/21 00:38:50;;;;;;;25.00;23.37;;;18.80;86.00;;;;;;5072222;28;20457;-72
2022/05/21 00:41:20;;;;;;;25.40;23.97;;;18.80;85.50;;;;;;5066666;28;21019;-75
2022/05/21 00:43:49;;;;;;;25.23;23.80;;;18.70;85.20;;;;;;5073908;28;21190;-73
2022/05/21 00:46:20;;;;;;;26.97;25.10;;;18.70;85.40;;;;;;5071841;28;20898;-74
2022/05/21 00:48:52;;;;;;;26.60;25.03;;;18.70;85.60;;;;;;5082239;28;20744;-73
2022/05/21 00:51:26;;;;;;;25.60;24.20;;;18.70;85.30;;;;;;5080157;28;20449;-76
2022/05/21 00:53:55;;;;;;;25.03;23.43;;;18.60;85.70;;;;;;5086279;28;20457;-78
2022/05/21 00:56:25;;;;;;;25.17;23.67;;;18.60;85.50;;;;;;5069641;28;20469;-78
2022/05/21 01:01:42;;;;;;;25.27;23.70;;;18.60;84.60;;;;;;5081275;28;20631;-74
2022/05/21 01:04:09;;;;;;;24.70;23.30;;;18.50;85.60;;;;;;5082287;28;20827;-74
2022/05/21 01:06:38;;;;;;;25.00;23.50;;;18.50;85.20;;;;;;5086336;28;20469;-74
2022/05/21 01:09:05;;;;;;;25.20;23.70;;;18.50;85.30;;;;;;5073335;28;20474;-73
2022/05/21 01:11:33;;;;;;;25.03;23.57;;;18.40;85.50;;;;;;5084660;28;20461;-73
2022/05/21 01:14:00;;;;;;;25.27;23.87;;;18.30;85.40;;;;;;5076202;28;20828;-73
2022/05/21 01:16:29;;;;;;;24.97;23.57;;;18.30;85.00;;;;;;5092137;28;21034;-75
2022/05/21 01:18:56;;;;;;;24.80;23.40;;;18.30;84.50;;;;;;5081504;28;20463;-73
2022/05/21 01:21:24;;;;;;;23.73;22.53;;;18.20;84.80;;;;;;5092423;28;20474;-77
2022/05/21 01:23:52;;;;;;;24.07;22.77;;;18.10;84.70;;;;;;5086316;28;20468;-72
2022/05/21 01:26:22;;;;;;;24.40;23.10;;;18.10;83.60;;;;;;5086776;28;20476;-73
2022/05/21 01:28:50;;;;;;;24.60;23.30;;;18.10;82.60;;;;;;5082651;28;20556;-74
2022/05/21 01:31:17;;;;;;;25.20;23.80;;;17.90;81.40;;;;;;5091131;28;20455;-74
2022/05/21 01:33:45;;;;;;;24.67;23.37;;;17.90;80.10;;;;;;5077623;28;20461;-73
2022/05/21 01:36:13;;;;;;;24.57;23.27;;;17.80;80.60;;;;;;5078538;28;20480;-73
2022/05/21 01:38:41;;;;;;;25.00;23.57;;;17.80;80.40;;;;;;5076404;28;20454;-74
2022/05/21 01:41:10;;;;;;;25.63;24.23;;;17.80;80.40;;;;;;5076161;28;20478;-73
2022/05/21 01:46:23;;;;;;;25.80;24.40;;;17.70;79.80;;;;;;5091467;28;20538;-73
2022/05/21 01:48:50;;;;;;;25.80;24.40;;;17.70;80.20;;;;;;5077827;28;20481;-72
2022/05/21 01:51:17;;;;;;;25.30;23.73;;;17.70;80.50;;;;;;5072705;28;20451;-72
2022/05/21 01:53:45;;;;;;;25.80;24.40;;;17.60;80.90;;;;;;5083378;28;20452;-71
2022/05/21 01:56:14;;;;;;;25.80;24.30;;;17.60;80.90;;;;;;5086467;28;20465;-72
2022/05/21 01:58:42;;;;;;;25.60;24.20;;;17.60;81.10;;;;;;5072911;28;20456;-71
2022/05/21 02:01:10;;;;;;;24.03;22.83;;;17.60;81.50;;;;;;5070999;28;20480;-72
2022/05/21 02:03:38;;;;;;;24.80;23.50;;;17.60;81.60;;;;;;5069147;28;20461;-72
2022/05/21 02:06:05;;;;;;;24.47;23.17;;;17.50;81.80;;;;;;5083559;28;20477;-72
2022/05/21 02:08:32;;;;;;;24.97;23.57;;;17.40;82.40;;;;;;5079892;28;21013;-72
2022/05/21 02:10:59;;;;;;;25.60;24.10;;;17.40;82.80;;;;;;5075853;28;20451;-72
2022/05/21 02:13:29;;;;;;;24.70;23.30;;;17.40;83.20;;;;;;5084522;28;20454;-72
2022/05/21 02:15:55;;;;;;;25.77;24.10;;;17.30;83.80;;;;;;5085376;28;20564;-72
2022/05/21 02:18:23;;;;;;;24.57;23.27;;;17.30;84.00;;;;;;5082143;28;20492;-72
2022/05/21 02:20:51;;;;;;;24.43;22.93;;;17.20;84.20;;;;;;5070230;28;20478;-72
2022/05/21 02:23:18;;;;;;;24.97;23.57;;;17.20;84.40;;;;;;5086160;28;20466;-72
2022/05/21 02:25:46;;;;;;;25.03;23.50;;;17.10;84.90;;;;;;5075963;28;20903;-72
2022/05/21 02:28:13;;;;;;;25.20;23.80;;;17.10;85.30;;;;;;5082516;28;20465;-72
2022/05/21 02:30:43;;;;;;;24.87;23.50;;;17.00;85.60;;;;;;5091581;28;20464;-72
2022/05/21 02:33:10;;;;;;;25.53;24.03;;;16.90;86.30;;;;;;5082917;28;20464;-71
2022/05/21 02:35:37;;;;;;;25.07;23.67;;;16.80;86.30;;;;;;5076798;28;20482;-70
2022/05/21 02:40:49;;;;;;;25.10;23.73;;;16.80;86.60;;;;;;5074678;28;20512;-71
2022/05/21 02:43:15;;;;;;;24.37;23.17;;;16.70;86.60;;;;;;5080986;28;20491;-71
2022/05/21 02:45:44;;;;;;;25.53;24.10;;;16.70;86.30;;;;;;5101153;28;20469;-71
2022/05/21 02:48:11;;;;;;;25.63;24.13;;;16.70;86.10;;;;;;5084477;28;20469;-71
2022/05/21 02:50:38;;;;;;;24.10;22.80;;;16.60;86.20;;;;;;5089542;28;20449;-71
2022/05/21 02:53:08;;;;;;;25.03;23.53;;;16.60;86.40;;;;;;5084299;28;20989;-71
2022/05/21 02:55:35;;;;;;;24.80;23.50;;;16.50;86.60;;;;;;5083920;28;21037;-71
2022/05/21 02:58:02;;;;;;;24.47;23.20;;;16.50;86.40;;;;;;5079529;28;20461;-73
2022/05/21 03:00:31;;;;;;;26.20;24.60;;;16.40;86.30;;;;;;5083335;28;20462;-74
2022/05/21 03:03:00;;;;;;;25.77;24.00;;;16.40;85.80;;;;;;5081349;28;20991;-73
2022/05/21 03:05:29;;;;;;;25.10;23.50;;;16.40;84.80;;;;;;5080062;28;20485;-73
2022/05/21 03:07:56;;;;;;;25.30;23.90;;;16.30;84.40;;;;;;5083881;28;20565;-73
2022/05/21 03:10:25;;;;;;;26.03;24.53;;;16.30;84.10;;;;;;5082486;28;20580;-72
2022/05/21 03:12:57;;;;;;;25.03;23.70;;;16.20;84.10;;;;;;5087038;28;20476;-76
2022/05/21 03:15:28;;;;;;;26.10;24.60;;;16.20;84.50;;;;;;5079159;28;20843;-72
2022/05/21 03:17:55;;;;;;;27.00;25.50;;;16.00;84.90;;;;;;5074372;28;20452;-73
2022/05/21 03:20:24;;;;;;;26.90;25.40;;;15.90;85.50;;;;;;5086972;28;20455;-72
2022/05/21 03:22:51;;;;;;;26.30;24.70;;;15.80;85.70;;;;;;5078144;28;20914;-72
2022/05/21 03:25:18;;;;;;;26.77;24.83;;;15.90;85.30;;;;;;5074263;28;20574;-74
2022/05/21 03:27:45;;;;;;;25.73;24.33;;;15.90;85.30;;;;;;5091761;28;20986;-74
2022/05/21 03:30:14;;;;;;;26.10;24.60;;;16.00;84.90;;;;;;5094942;28;20461;-72
2022/05/21 03:32:42;;;;;;;26.20;24.70;;;15.90;84.70;;;;;;5082168;28;20507;-74
2022/05/21 03:35:10;;;;;;;26.50;25.00;;;15.70;84.70;;;;;;5082261;28;20480;-74
2022/05/21 03:37:39;;;;;;;25.70;24.20;;;15.60;85.20;;;;;;5082534;28;20536;-71
2022/05/21 03:40:09;;;;;;;24.90;23.53;;;15.60;85.50;;;;;;5089922;28;20451;-72
2022/05/21 03:42:36;;;;;;;24.70;23.30;;;15.60;85.80;;;;;;5079565;28;20477;-71
2022/05/21 03:45:03;;;;;;;24.53;23.07;;;15.70;85.90;;;;;;5088127;28;20593;-72
2022/05/21 03:47:30;;;;;;;24.50;23.10;;;15.70;86.10;;;;;;5084089;28;20465;-72
2022/05/21 03:49:57;;;;;;;25.37;23.97;;;15.70;86.00;;;;;;5085491;28;22064;-71
2022/05/21 03:52:24;;;;;;;25.57;24.10;;;15.70;86.10;;;;;;5080755;28;20450;-72
2022/05/21 03:54:52;;;;;;;24.00;22.43;;;15.70;86.10;;;;;;5089326;28;20480;-71
2022/05/21 03:57:19;;;;;;;24.93;23.43;;;15.70;86.60;;;;;;5087646;28;20462;-71
2022/05/21 03:59:46;;;;;;;24.57;23.27;;;15.80;86.30;;;;;;5079594;28;20455;-71
2022/05/21 04:02:13;;;;;;;24.47;23.07;;;15.80;86.20;;;;;;5081422;28;20488;-73
2022/05/21 04:04:40;;;;;;;24.93;23.57;;;15.80;85.50;;;;;;5074725;28;20482;-70
2022/05/21 04:07:07;;;;;;;25.30;23.70;;;15.80;86.00;;;;;;5073962;28;20450;-71
2022/05/21 04:09:34;;;;;;;24.87;23.57;;;15.90;85.80;;;;;;5086980;28;20491;-71
2022/05/21 04:12:04;;;;;;;25.47;24.07;;;16.00;84.50;;;;;;5091759;28;20557;-71
2022/05/21 04:14:31;;;;;;;25.17;23.37;;;16.00;84.50;;;;;;5075865;28;20823;-71
2022/05/21 04:16:59;;;;;;;24.27;22.90;;;16.00;84.20;;;;;;5079341;28;20454;-71
2022/05/21 04:19:28;;;;;;;24.73;23.53;;;16.00;84.30;;;;;;5083938;28;20469;-71
2022/05/21 04:21:55;;;;;;;25.27;23.80;;;16.10;83.70;;;;;;5079879;28;20478;-71
2022/05/21 04:24:22;;;;;;;25.47;23.83;;;16.10;82.90;;;;;;5104079;28;20561;-71
2022/05/21 04:26:49;;;;;;;24.77;23.47;;;16.20;82.60;;;;;;5087818;28;20473;-71
2022/05/21 04:29:19;;;;;;;25.90;24.50;;;16.10;82.00;;;;;;5071911;28;20501;-71
2022/05/21 04:31:46;;;;;;;25.27;23.87;;;16.10;80.50;;;;;;5085881;28;20453;-72
2022/05/21 04:34:14;;;;;;;25.97;24.27;;;16.00;80.20;;;;;;5078974;28;20973;-72
2022/05/21 04:36:41;;;;;;;25.67;24.23;;;15.80;81.30;;;;;;5073427;28;20939;-73
2022/05/21 04:39:08;;;;;;;25.07;23.57;;;15.80;80.50;;;;;;5089580;28;20675;-72
2022/05/21 04:41:35;;;;;;;25.10;23.67;;;15.80;80.40;;;;;;5077091;28;20492;-72
2022/05/21 04:44:02;;;;;;;25.63;24.30;;;15.90;80.70;;;;;;5064504;28;20458;-73
2022/05/21 04:46:32;;;;;;;25.07;23.77;;;16.00;80.40;;;;;;5074612;28;20458;-75
2022/05/21 04:48:59;;;;;;;24.80;23.50;;;16.10;79.70;;;;;;5088802;28;20871;-73
2022/05/21 04:51:26;;;;;;;25.43;24.13;;;16.20;79.70;;;;;;5080633;28;20900;-73
2022/05/21 04:53:53;;;;;;;25.83;24.27;;;16.20;79.20;;;;;;5086721;28;20453;-73
2022/05/21 04:56:20;;;;;;;25.47;24.17;;;16.30;78.90;;;;;;5084598;28;20608;-73
2022/05/21 04:58:47;;;;;;;27.27;25.70;;;16.30;78.30;;;;;;5085440;28;20453;-73
2022/05/21 05:01:14;;;;;;;25.70;24.17;;;16.30;78.70;;;;;;5078776;28;20473;-73
2022/05/21 05:03:43;;;;;;;26.43;24.70;;;16.30;78.90;;;;;;5087937;28;20472;-74
2022/05/21 05:06:09;;;;;;;26.07;24.67;;;16.30;78.70;;;;;;5093186;28;20469;-73
2022/05/21 05:08:37;;;;;;;25.67;24.23;;;16.50;78.60;;;;;;5079029;28;20472;-72
2022/05/21 05:11:04;;;;;;;28.13;26.33;;;16.50;78.00;;;;;;5099636;28;20450;-73
2022/05/21 05:13:31;;;;;;;27.50;25.73;;;16.70;77.40;;;;;;5096979;28;20463;-73
2022/05/21 05:15:58;;;;;;;27.20;25.40;;;16.70;76.80;;;;;;5097979;28;20495;-72
2022/05/21 05:18:27;;;;;;;26.17;24.60;;;16.80;76.10;;;;;;5088063;28;20461;-73
2022/05/21 05:20:55;;;;;;;26.63;25.03;;;16.90;75.70;;;;;;5087698;28;20449;-71
2022/05/21 05:23:22;;;;;;;26.90;25.30;;;17.00;75.20;;;;;;5091123;28;20959;-70
2022/05/21 05:25:49;;;;;;;26.30;24.60;;;17.00;74.40;;;;;;5073060;28;20538;-70
2022/05/21 05:28:18;;;;;;;26.47;25.00;;;17.00;74.60;;;;;;5074688;28;20454;-70
2022/05/21 05:30:46;;;;;;;26.33;24.83;;;17.20;74.20;;;;;;5082529;28;20537;-72
2022/05/21 05:33:13;;;;;;;25.80;24.00;;;17.20;74.20;;;;;;5084307;28;20456;-72
2022/05/21 05:35:41;;;;;;;25.03;23.63;;;17.30;73.60;;;;;;5080133;28;21040;-72
2022/05/21 05:38:12;;;;;;;26.07;24.67;;;17.30;72.70;;;;;;5096131;28;20955;-70
2022/05/21 05:40:41;;;;;;;27.37;25.87;;;17.40;73.00;;;;;;5081715;28;20458;-72
2022/05/21 05:43:08;;;;;;;26.10;24.50;;;17.40;72.60;;;;;;5073753;28;20852;-71
2022/05/21 05:45:35;;;;;;;26.57;24.93;;;17.50;72.30;;;;;;5080762;28;20474;-74
2022/05/21 05:48:02;;;;;;;26.90;25.30;;;17.50;71.50;;;;;;5074375;28;20453;-75
2022/05/21 05:50:29;;;;;;;27.97;26.37;;;17.60;71.20;;;;;;5077928;28;21017;-75
2022/05/21 05:53:00;;;;;;;25.80;24.33;;;17.70;71.00;;;;;;5080804;28;20450;-75
2022/05/21 05:55:30;;;;;;;25.90;24.50;;;17.70;70.80;;;;;;5084111;28;20478;-76
2022/05/21 06:00:47;;;;;;;29.53;28.03;;;17.90;68.50;;;;;;5078004;28;20443;-77
2022/05/21 06:03:14;;;;;;;26.87;25.40;;;17.80;69.00;;;;;;5081451;28;20500;-75
2022/05/21 06:05:41;;;;;;;26.93;25.47;;;17.80;68.60;;;;;;5084789;28;20833;-75
2022/05/21 06:08:08;;;;;;;26.93;25.43;;;17.70;68.60;;;;;;5082882;28;20472;-71
2022/05/21 06:10:39;;;;;;;25.97;24.50;;;17.70;68.40;;;;;;5087810;28;20465;-71
2022/05/21 06:13:07;;;;;;;26.00;24.47;;;17.80;68.90;;;;;;5073309;28;20531;-72
2022/05/21 06:15:34;;;;;;;27.87;26.27;;;17.80;67.40;;;;;;5082880;28;20474;-72
2022/05/21 06:18:07;;;;;;;25.50;24.03;;;17.70;66.90;;;;;;5077306;28;20461;-76
2022/05/21 06:20:34;;;;;;;27.77;26.27;;;17.50;66.80;;;;;;5076398;28;20454;-72
2022/05/21 06:23:01;;;;;;;26.30;24.33;;;17.60;67.40;;;;;;5076923;28;20860;-74
2022/05/21 06:25:29;;;;;;;24.97;23.57;;;17.50;67.30;;;;;;5082548;28;21108;-74
2022/05/21 06:27:58;;;;;;;25.73;24.20;;;17.50;67.80;;;;;;5080975;28;20524;-71
2022/05/21 06:30:27;;;;;;;25.90;24.40;;;17.60;67.30;;;;;;5081421;28;20635;-71
2022/05/21 06:32:54;;;;;;;25.60;24.00;;;17.50;66.80;;;;;;5076675;28;20959;-71
2022/05/21 06:35:21;;;;;;;24.60;23.17;;;17.50;66.80;;;;;;5082475;28;20466;-75
2022/05/21 06:37:48;;;;;;;24.93;23.30;;;17.70;66.10;;;;;;5079574;28;20463;-73
2022/05/21 06:40:17;;;;;;;25.13;23.63;;;17.70;66.30;;;;;;5087542;28;20481;-74
2022/05/21 06:42:46;;;;;;;25.97;24.23;;;17.80;65.20;;;;;;5082558;28;20482;-73
2022/05/21 06:45:14;;;;;;;26.33;24.80;;;18.00;64.90;;;;;;5076244;28;20860;-73
2022/05/21 06:47:41;;;;;;;25.80;24.30;;;18.20;64.10;;;;;;5082726;28;20458;-76
2022/05/21 06:50:09;;;;;;;25.40;24.00;;;18.40;63.10;;;;;;5083456;28;20458;-75
2022/05/21 06:52:39;;;;;;;25.03;23.63;;;18.60;62.70;;;;;;5087043;28;20523;-75
2022/05/21 06:55:07;;;;;;;27.03;25.53;;;18.80;62.60;;;;;;5086769;28;20501;-74
2022/05/21 06:57:34;;;;;;;25.90;24.40;;;18.80;61.10;;;;;;5094973;28;20464;-72
2022/05/21 07:00:01;;;;;;;26.63;25.03;;;18.80;61.80;;;;;;5077745;28;20532;-72
2022/05/21 07:02:29;;;;;;;25.50;24.10;;;19.00;61.10;;;;;;5075725;28;20466;-72
2022/05/21 07:07:44;;;;;;;25.43;23.97;;;18.70;60.30;;;;;;5077017;28;20445;-72
2022/05/21 07:10:16;;;;;;;25.63;24.13;;;18.30;61.10;;;;;;5084464;28;20849;-72
2022/05/21 07:12:43;;;;;;;27.70;26.30;;;18.30;62.00;;;;;;5089160;28;20807;-72
2022/05/21 07:15:11;;;;;;;25.50;24.00;;;18.40;62.20;;;;;;5077794;28;20479;-72
2022/05/21 07:17:41;;;;;;;26.20;24.70;;;18.40;61.90;;;;;;5080139;28;20461;-76
2022/05/21 07:20:11;;;;;;;25.77;24.47;;;18.50;62.70;;;;;;5073797;28;20453;-71
2022/05/21 07:22:41;;;;;;;25.27;23.40;;;18.60;61.60;;;;;;5078317;28;20474;-72
2022/05/21 07:25:09;;;;;;;25.53;24.00;;;18.50;61.90;;;;;;5083998;28;20474;-71
2022/05/21 07:27:36;;;;;;;26.77;25.27;;;18.60;61.80;;;;;;5084965;28;20466;-71
2022/05/21 07:30:03;;;;;;;25.47;23.97;;;18.70;62.40;;;;;;5085022;28;20476;-73
2022/05/21 07:32:30;;;;;;;24.03;22.60;;;18.60;59.30;;;;;;5080382;28;20457;-72
2022/05/21 07:34:59;;;;;;;24.67;23.27;;;18.60;60.00;;;;;;5078341;28;20600;-72
2022/05/21 07:37:26;;;;;;;25.97;24.57;;;18.40;60.10;;;;;;5075006;28;20453;-71
2022/05/21 07:39:54;;;;;;;25.13;23.73;;;18.20;61.30;;;;;;5071336;28;20553;-73
2022/05/21 07:42:21;;;;;;;26.37;24.87;;;18.10;61.70;;;;;;5081688;28;20532;-71
2022/05/21 07:44:48;;;;;;;25.30;23.70;;;18.30;62.10;;;;;;5080728;28;20496;-72
2022/05/21 07:47:14;;;;;;;25.13;23.83;;;18.60;61.80;;;;;;5082387;28;20843;-72
2022/05/21 07:49:42;;;;;;;24.93;23.43;;;18.80;60.20;;;;;;5080832;28;20995;-72
2022/05/21 07:52:10;;;;;;;24.47;23.17;;;18.80;60.00;;;;;;5082096;28;20449;-71
2022/05/21 07:54:37;;;;;;;23.90;22.70;;;19.00;59.20;;;;;;5075437;28;20490;-72
2022/05/21 07:57:05;;;;;;;26.07;24.20;;;19.10;58.50;;;;;;5092851;28;20900;-71
2022/05/21 07:59:32;;;;;;;24.73;23.43;;;19.20;58.20;;;;;;5081123;28;20561;-72
2022/05/21 08:01:59;;;;;;;26.17;24.77;;;18.90;58.20;;;;;;5084298;28;20453;-73
2022/05/21 08:04:26;;;;;;;24.40;23.10;;;18.70;59.70;;;;;;5069425;28;20494;-72
2022/05/21 08:06:53;;;;;;;24.77;23.37;;;18.80;59.20;;;;;;5084640;28;20448;-72
2022/05/21 08:09:22;;;;;;;25.70;24.30;;;18.80;58.80;;;;;;5079580;28;20539;-71
2022/05/21 08:11:49;;;;;;;24.07;22.87;;;18.70;59.10;;;;;;5077961;28;20466;-70
2022/05/21 08:14:16;;;;;;;26.00;24.60;;;18.30;58.70;;;;;;5084477;28;20454;-70
2022/05/21 08:16:43;;;;;;;25.47;24.00;;;18.30;59.40;;;;;;5075173;28;20455;-70
2022/05/21 08:19:12;;;;;;;24.00;22.70;;;18.50;59.80;;;;;;5081172;28;20453;-69
2022/05/21 08:21:39;;;;;;;24.53;23.23;;;18.40;59.40;;;;;;5075255;28;20462;-70
2022/05/21 08:26:59;;;;;;;24.40;23.07;;;18.60;58.80;;;;;;5076611;28;20521;-70
2022/05/21 08:29:27;;;;;;;24.30;23.00;;;18.80;58.70;;;;;;5086341;28;20460;-70
2022/05/21 08:31:55;;;;;;;25.30;23.63;;;19.00;58.30;;;;;;5077455;28;20458;-70
2022/05/21 08:34:23;;;;;;;25.43;24.03;;;19.10;58.60;;;;;;5078594;28;20567;-70
2022/05/21 08:36:50;;;;;;;25.20;23.80;;;19.40;58.40;;;;;;5083052;28;20456;-69
2022/05/21 08:39:18;;;;;;;26.43;25.00;;;19.70;56.70;;;;;;5076701;28;20838;-70
2022/05/21 08:41:47;;;;;;;25.23;23.80;;;19.70;56.60;;;;;;5085016;28;20485;-70
2022/05/21 08:44:20;;;;;;;25.00;23.70;;;19.80;57.10;;;;;;5071529;28;20577;-70
2022/05/21 08:47:08;;;;;;;25.80;24.40;;;20.00;56.20;;;;;;5070268;28;20454;-70
2022/05/21 08:49:42;;;;;;;26.03;24.63;;;19.90;56.50;;;;;;5076446;28;20536;-70
2022/05/21 08:52:18;;;;;;;25.30;23.90;;;19.50;57.50;;;;;;5080434;28;20489;-69
2022/05/21 08:54:47;;;;;;;24.33;23.03;;;19.50;57.70;;;;;;5071181;28;20489;-69
2022/05/21 08:57:18;;;;;;;24.63;23.33;;;19.80;56.80;;;;;;5072721;28;20463;-70
2022/05/21 08:59:54;;;;;;;24.30;23.00;;;20.00;56.00;;;;;;5085291;28;20449;-69
2022/05/21 09:02:29;;;;;;;25.23;23.83;;;20.30;56.40;;;;;;5082809;28;20453;-70
2022/05/21 09:04:56;;;;;;;25.60;23.90;;;20.60;56.60;;;;;;5078457;28;20530;-71
2022/05/21 09:07:25;;;;;;;25.23;23.83;;;20.80;54.80;;;;;;5078580;28;20481;-75
2022/05/21 09:10:08;;;;;;;25.27;23.77;;;20.90;54.10;;;;;;5071707;28;20470;-71
2022/05/21 09:12:44;;;;;;;24.33;23.00;;;20.90;54.70;;;;;;5075237;28;20488;-72
2022/05/21 09:18:04;;;;;;;26.67;25.07;;;20.70;54.10;;;;;;5079440;28;20493;-72
2022/05/21 09:20:35;;;;;;;25.00;23.60;;;20.60;53.80;;;;;;5078813;28;20450;-72
2022/05/21 09:23:02;;;;;;;25.27;23.87;;;20.60;54.70;;;;;;5079610;28;20545;-72
2022/05/21 09:25:29;;;;;;;25.97;24.57;;;20.60;54.80;;;;;;5088818;28;20477;-72
2022/05/21 09:28:05;;;;;;;24.17;22.77;;;20.60;55.30;;;;;;5075319;28;20464;-72
2022/05/21 09:30:35;;;;;;;25.40;23.90;;;20.50;55.50;;;;;;5081068;28;20558;-72
2022/05/21 09:33:23;;;;;;;25.63;24.23;;;20.30;56.10;;;;;;5080262;28;20469;-72
2022/05/21 09:35:53;;;;;;;27.00;25.60;;;20.20;56.20;;;;;;5083224;28;20477;-74
2022/05/21 09:38:26;;;;;;;25.17;23.87;;;20.20;56.60;;;;;;5088984;28;20537;-72
2022/05/21 09:41:12;;;;;;;25.53;24.13;;;20.00;56.80;;;;;;5085099;28;20464;-72
2022/05/21 09:46:33;;;;;;;26.67;25.27;;;20.20;57.20;;;;;;5084794;28;20623;-73
2022/05/21 09:49:15;;;;;;;25.50;24.20;;;20.10;56.90;;;;;;5081166;28;20796;-72
2022/05/21 09:51:52;;;;;;;25.53;24.23;;;20.00;57.10;;;;;;5084604;28;20556;-72
2022/05/21 09:54:20;;;;;;;27.17;25.47;;;20.10;57.20;;;;;;5082874;28;20564;-72
2022/05/21 09:56:49;;;;;;;25.60;24.20;;;20.10;57.30;;;;;;5079139;28;20462;-71
2022/05/21 09:59:18;;;;;;;27.10;25.40;;;20.10;57.20;;;;;;5082536;28;20454;-71
2022/05/21 10:01:49;;;;;;;25.60;23.93;;;20.20;57.30;;;;;;5082406;28;20450;-73
2022/05/21 10:04:23;;;;;;;26.57;25.10;;;20.30;57.20;;;;;;5081095;28;20488;-70
2022/05/21 10:06:54;;;;;;;27.07;25.57;;;20.30;57.40;;;;;;5094432;28;20472;-70
2022/05/21 10:12:17;;;;;;;26.20;24.90;;;20.30;57.30;;;;;;5074596;28;20450;-70
2022/05/21 10:14:51;;;;;;;26.87;25.47;;;19.80;58.30;;;;;;5087976;28;20966;-70
2022/05/21 10:17:28;;;;;;;25.83;24.40;;;19.60;58.50;;;;;;5090743;28;20453;-69
2022/05/21 10:20:01;;;;;;;25.77;24.47;;;19.70;59.00;;;;;;5105597;28;20467;-70
2022/05/21 10:22:43;;;;;;;26.70;25.17;;;19.90;58.30;;;;;;5110866;28;20459;-70
2022/05/21 10:25:14;;;;;;;27.73;26.13;;;20.30;58.20;;;;;;5104638;28;20477;-70
2022/05/21 10:28:09;;;;;;;26.70;25.20;;;20.60;57.30;;;;;;5094092;28;20478;-70
2022/05/21 10:31:04;;;;;;;26.90;25.50;;;20.80;57.30;;;;;;5074305;28;20828;-70
2022/05/21 10:33:46;;;;;;;29.07;27.17;;;21.00;57.10;;;;;;5071155;28;20451;-70
2022/05/21 10:36:20;;;;;;;26.93;25.50;;;21.30;56.80;;;;;;5097716;28;20552;-70
2022/05/21 10:39:11;;;;;;;27.00;25.50;;;21.60;55.40;;;;;;5093246;28;20462;-70
2022/05/21 10:42:13;;;;;;;26.50;24.90;;;21.80;55.20;;;;;;5086906;28;20935;-74
2022/05/21 10:44:58;;;;;;;26.00;24.70;;;22.00;55.40;;;;;;5087057;28;20804;-73
2022/05/21 10:47:38;;;;;;;26.80;25.30;;;22.00;54.00;;;;;;5084595;28;20836;-71
2022/05/21 10:50:19;;;;;;;26.53;24.73;;;21.50;54.50;;;;;;5081857;28;20477;-72
2022/05/21 10:53:02;;;;;;;25.47;24.17;;;21.20;55.30;;;;;;5076941;28;20457;-71
2022/05/21 10:55:41;;;;;;;25.87;24.30;;;21.30;55.90;;;;;;5085893;28;20557;-71
2022/05/21 10:58:35;;;;;;;26.13;24.63;;;21.50;55.10;;;;;;5084790;28;20453;-70
2022/05/21 11:01:14;;;;;;;27.47;25.97;;;21.50;55.50;;;;;;5087917;28;20466;-71
2022/05/21 11:03:58;;;;;;;28.20;26.60;;;21.50;55.20;;;;;;5089351;28;20477;-71
2022/05/21 11:07:01;;;;;;;25.40;24.00;;;21.70;55.10;;;;;;5083958;28;20450;-71
2022/05/21 11:09:36;;;;;;;27.63;26.03;;;21.80;54.80;;;;;;5076424;28;21181;-70
2022/05/21 11:12:06;;;;;;;25.60;24.10;;;21.70;54.50;;;;;;5085520;28;20463;-71
2022/05/21 11:14:42;;;;;;;26.03;24.53;;;21.60;54.80;;;;;;5086582;28;20534;-70
2022/05/21 11:17:23;;;;;;;25.93;24.53;;;22.00;55.00;;;;;;5085203;28;20457;-71
2022/05/21 11:19:56;;;;;;;25.37;23.97;;;22.20;53.80;;;;;;5084482;28;20564;-71
2022/05/21 11:22:27;;;;;;;25.70;24.30;;;22.30;53.40;;;;;;5090072;28;20463;-70
2022/05/21 11:25:05;;;;;;;25.20;23.80;;;22.40;53.10;;;;;;5088474;28;20581;-71
2022/05/21 11:27:42;;;;;;;25.73;24.23;;;22.30;52.30;;;;;;5083574;28;20469;-70
2022/05/21 11:30:15;;;;;;;26.83;25.30;;;22.30;52.60;;;;;;5081074;28;20456;-73
2022/05/21 11:38:24;;;;;;;25.00;23.60;;;22.20;53.50;;;;;;5082464;28;20446;-72
2022/05/21 11:46:54;;;;;;;27.50;25.90;;;22.10;53.00;;;;;;5077977;28;20926;-73
2022/05/21 11:49:44;;;;;;;27.40;25.90;;;22.10;52.80;;;;;;5086068;28;20831;-75
2022/05/21 11:52:48;;;;;;;25.93;24.53;;;22.10;52.50;;;;;;5085150;28;20473;-73
2022/05/21 11:55:19;;;;;;;27.00;25.40;;;22.40;52.10;;;;;;5082010;28;20469;-71
2022/05/21 11:57:50;;;;;;;25.20;23.80;;;22.50;52.00;;;;;;5081681;28;20550;-74
2022/05/21 12:00:43;;;;;;;26.90;25.40;;;22.70;51.70;;;;;;5076906;28;20539;-72
2022/05/21 12:03:27;;;;;;;24.93;23.53;;;22.30;51.90;;;;;;5066162;28;20465;-74
2022/05/21 12:06:18;;;;;;;25.80;24.20;;;22.00;52.60;;;;;;5090272;28;20481;-73
2022/05/21 12:08:49;;;;;;;25.40;24.00;;;22.00;52.40;;;;;;5078204;28;20462;-74
2022/05/21 12:11:45;;;;;;;25.43;23.93;;;22.20;52.30;;;;;;5102269;28;20525;-73
2022/05/21 12:14:22;;;;;;;24.53;23.20;;;22.30;51.60;;;;;;5086986;28;20451;-71
2022/05/21 12:16:56;;;;;;;26.87;25.27;;;22.40;51.50;;;;;;5104161;28;20459;-71
2022/05/21 12:20:01;;;;;;;26.00;24.60;;;22.60;51.60;;;;;;5073160;28;20542;-71
2022/05/21 12:22:44;;;;;;;26.23;24.53;;;22.50;51.20;;;;;;5087650;28;20492;-71
2022/05/21 12:25:38;;;;;;;27.03;25.20;;;22.60;51.10;;;;;;5096773;28;20472;-70
2022/05/21 12:28:08;;;;;;;25.30;23.90;;;22.50;50.70;;;;;;5105664;28;20887;-71
2022/05/21 12:30:36;;;;;;;30.30;28.90;;;22.60;50.60;;;;;;5092059;28;20463;-71
2022/05/21 12:33:03;;;;;;;26.97;25.57;;;22.70;50.30;;;;;;5076579;28;20969;-71
2022/05/21 12:35:45;;;;;;;27.23;25.50;;;22.90;50.20;;;;;;5094965;28;20478;-71
2022/05/21 12:38:21;;;;;;;25.73;24.27;;;23.00;49.50;;;;;;5101893;28;20472;-71
2022/05/21 12:41:03;;;;;;;25.53;24.07;;;22.70;50.10;;;;;;5093890;28;20476;-71
2022/05/21 12:43:43;;;;;;;28.97;27.07;;;22.70;50.00;;;;;;5074413;28;20569;-71
2022/05/21 12:46:24;;;;;;;25.70;24.20;;;23.00;49.70;;;;;;5072175;28;21135;-72
2022/05/21 12:48:52;;;;;;;27.53;25.80;;;23.30;49.20;;;;;;5082734;28;20545;-71
2022/05/21 12:51:31;;;;;;;26.00;24.50;;;23.30;48.30;;;;;;5070833;28;20453;-71
2022/05/21 12:54:00;;;;;;;25.80;24.30;;;23.00;48.10;;;;;;5087440;28;20461;-71
2022/05/21 12:56:31;;;;;;;26.80;25.03;;;23.10;48.40;;;;;;5093952;28;20464;-71
2022/05/21 12:59:16;;;;;;;28.40;26.80;;;23.50;47.70;;;;;;5087430;28;20513;-71
2022/05/21 13:01:55;;;;;;;25.43;24.03;;;23.70;46.90;;;;;;5073630;28;20463;-70
2022/05/21 13:04:29;;;;;;;25.00;23.50;;;23.70;47.10;;;;;;5089165;28;20849;-71
2022/05/21 13:07:01;;;;;;;25.47;23.97;;;23.70;46.60;;;;;;5096668;28;20544;-71
2022/05/21 13:09:28;;;;;;;26.33;24.63;;;23.70;47.30;;;;;;5098261;28;20466;-71
2022/05/21 13:11:56;;;;;;;25.90;24.40;;;24.10;46.70;;;;;;5113987;28;20454;-71
2022/05/21 13:14:31;;;;;;;26.03;24.50;;;24.40;46.30;;;;;;5105190;27;20507;-71
2022/05/21 13:17:00;;;;;;;26.33;24.83;;;24.80;45.40;;;;;;5098408;28;21122;-72
2022/05/21 13:19:58;;;;;;;26.43;24.53;;;25.00;45.20;;;;;;5091888;28;20460;-72
2022/05/21 13:22:37;;;;;;;25.60;24.20;;;25.40;44.20;;;;;;5073220;28;20458;-71
2022/05/21 13:25:07;;;;;;;26.30;24.83;;;24.70;44.10;;;;;;5082337;28;20483;-71